Time,TemperatureF,DewpointF,PressureIn,WindDirection,WindDirectionDegrees,WindSpeedMPH,WindSpeedGustMPH,Humidity,HourlyPrecipIn,Conditions,Clouds,dailyrainin,SoftwareType,DateUTC
2013-06-01 00:01:00,72.7,61.1,29.94,SSW,192,0.0,0.0,67,0.00,CLR,,0.00,WeatherDisplay:10.37,2013-06-01 04:01:00,
2013-06-01 00:02:00,72.5,61.3,29.94,SSW,192,0.0,0.0,68,0.00,CLR,,0.00,WeatherDisplay:10.37,2013-06-01 04:02:00,
2013-06-01 00:07:00,72.5,61.7,29.94,SSW,202,0.0,1.2,69,0.00,CLR,,0.00,WeatherDisplay:10.37,2013-06-01 04:07:00,
2013-06-01 00:08:00,72.5,61.7,29.94,SSW,202,0.0,1.2,69,0.00,CLR,,0.00,WeatherDisplay:10.37,2013-06-01 04:08:00,
2013-06-01 00:13:00,72.8,62.0,29.94,SSW,206,0.0,1.2,69,0.00,CLR,,0.00,WeatherDisplay:10.37,2013-06-01 04:13:00,
2013-06-01 00:18:00,73.2,62.4,29.94,SSW,209,0.0,0.0,69,0.00,CLR,,0.00,WeatherDisplay:10.37,2013-06-01 04:18:00,
2013-06-01 00:23:00,73.3,62.9,29.94,SSW,210,0.0,0.0,70,0.00,CLR,,0.00,WeatherDisplay:10.37,2013-06-01 04:23:00,
2013-06-01 00:28:00,73.5,63.1,29.94,SSW,210,0.0,0.0,70,0.00,CLR,,0.00,WeatherDisplay:10.37,2013-06-01 04:28:00,
2013-06-01 00:33:00,73.3,62.9,29.94,SSW,210,0.0,0.0,70,0.00,CLR,,0.00,WeatherDisplay:10.37,2013-06-01 04:33:00,
2013-06-01 00:39:00,73.0,63.0,29.94,SSW,210,0.0,0.0,71,0.00,CLR,,0.00,WeatherDisplay:10.37,2013-06-01 04:39:00,
2013-06-01 00:44:00,72.8,63.2,29.94,SSW,212,0.0,0.0,72,0.00,CLR,,0.00,WeatherDisplay:10.37,2013-06-01 04:44:00,
2013-06-01 00:49:00,72.5,62.6,29.94,SSW,212,0.0,0.0,71,0.00,CLR,,0.00,WeatherDisplay:10.37,2013-06-01 04:49:00,
2013-06-01 00:54:00,72.1,62.6,29.94,SSW,212,0.0,0.0,72,0.00,CLR,,0.00,WeatherDisplay:10.37,2013-06-01 04:54:00,
2013-06-01 00:59:00,72.0,62.9,29.94,SSW,212,0.0,0.0,73,0.00,CLR,,0.00,WeatherDisplay:10.37,2013-06-01 04:59:00,
2013-06-01 01:04:00,71.8,62.7,29.94,SSW,212,0.0,0.0,73,0.00,CLR,,0.00,WeatherDisplay:10.37,2013-06-01 05:04:00,
2013-06-01 01:09:00,71.6,62.9,29.93,SSW,212,0.0,0.0,74,0.00,CLR,,0.00,WeatherDisplay:10.37,2013-06-01 05:09:00,
2013-06-01 01:14:00,71.5,63.2,29.94,SSW,212,0.0,0.0,75,0.00,CLR,,0.00,WeatherDisplay:10.37,2013-06-01 05:14:00,
2013-06-01 01:19:00,71.1,62.8,29.94,SSW,212,0.0,0.0,75,0.00,CLR,,0.00,WeatherDisplay:10.37,2013-06-01 05:19:00,
2013-06-01 01:24:00,70.8,62.9,29.94,SSW,212,0.0,0.0,76,0.00,CLR,,0.00,WeatherDisplay:10.37,2013-06-01 05:24:00,
2013-06-01 01:29:00,70.6,62.7,29.94,SSW,212,0.0,0.0,76,0.00,CLR,,0.00,WeatherDisplay:10.37,2013-06-01 05:29:00,
2013-06-01 01:34:00,70.1,62.2,29.93,SSW,212,0.0,0.0,76,0.00,CLR,,0.00,WeatherDisplay:10.37,2013-06-01 05:34:00,
2013-06-01 01:39:00,69.9,62.4,29.93,SSW,212,0.0,0.0,77,0.00,CLR,,0.00,WeatherDisplay:10.37,2013-06-01 05:39:00,
2013-06-01 01:44:00,69.9,62.4,29.93,SSW,212,0.0,0.0,77,0.00,CLR,,0.00,WeatherDisplay:10.37,2013-06-01 05:44:00,
2013-06-01 01:49:00,69.8,62.3,29.93,SSW,212,0.0,0.0,77,0.00,CLR,,0.00,WeatherDisplay:10.37,2013-06-01 05:49:00,
2013-06-01 01:54:00,69.8,62.6,29.93,SSW,212,0.0,0.0,78,0.00,CLR,,0.00,WeatherDisplay:10.37,2013-06-01 05:54:00,
2013-06-01 01:59:00,69.6,62.4,29.94,SSW,212,0.0,0.0,78,0.00,CLR,,0.00,WeatherDisplay:10.37,2013-06-01 05:59:00,
2013-06-01 02:04:00,69.6,62.4,29.94,SSW,212,0.0,0.0,78,0.00,CLR,,0.00,WeatherDisplay:10.37,2013-06-01 06:04:00,
2013-06-01 02:09:00,69.8,62.6,29.94,SSW,212,0.0,0.0,78,0.00,CLR,,0.00,WeatherDisplay:10.37,2013-06-01 06:09:00,
2013-06-01 02:14:00,69.8,63.0,29.94,SSW,212,0.0,0.0,79,0.00,CLR,,0.00,WeatherDisplay:10.37,2013-06-01 06:14:00,
2013-06-01 02:19:00,69.8,63.0,29.94,SSW,212,0.0,0.0,79,0.00,CLR,,0.00,WeatherDisplay:10.37,2013-06-01 06:19:00,
2013-06-01 02:24:00,69.8,63.0,29.93,SSW,212,0.0,0.0,79,0.00,CLR,,0.00,WeatherDisplay:10.37,2013-06-01 06:24:00,
2013-06-01 02:29:00,69.6,63.2,29.93,SSW,212,0.0,0.0,80,0.00,CLR,,0.00,WeatherDisplay:10.37,2013-06-01 06:29:00,
2013-06-01 02:35:00,69.6,63.2,29.93,SSW,212,0.0,0.0,80,0.00,CLR,,0.00,WeatherDisplay:10.37,2013-06-01 06:35:00,
2013-06-01 02:40:00,69.4,63.0,29.93,SSW,212,0.0,0.0,80,0.00,CLR,,0.00,WeatherDisplay:10.37,2013-06-01 06:40:00,
2013-06-01 02:45:00,69.3,63.2,29.93,SSW,212,0.0,0.0,81,0.00,CLR,,0.00,WeatherDisplay:10.37,2013-06-01 06:45:00,
2013-06-01 02:50:00,69.1,63.0,29.93,SSW,212,0.0,0.0,81,0.00,CLR,,0.00,WeatherDisplay:10.37,2013-06-01 06:50:00,
2013-06-01 02:55:00,68.8,63.1,29.92,SSW,212,0.0,0.0,82,0.00,CLR,,0.00,WeatherDisplay:10.37,2013-06-01 06:55:00,
2013-06-01 03:00:00,68.6,62.9,29.92,SSW,212,0.0,0.0,82,0.00,CLR,,0.00,WeatherDisplay:10.37,2013-06-01 07:00:00,
2013-06-01 03:06:00,68.6,63.2,29.92,SSW,212,0.0,0.0,83,0.00,CLR,,0.00,WeatherDisplay:10.37,2013-06-01 07:06:00,
2013-06-01 03:11:00,68.4,63.0,29.92,SSW,212,0.0,0.0,83,0.00,CLR,,0.00,WeatherDisplay:10.37,2013-06-01 07:11:00,
2013-06-01 03:16:00,68.3,63.3,29.92,SSW,212,0.0,0.0,84,0.00,CLR,,0.00,WeatherDisplay:10.37,2013-06-01 07:16:00,
2013-06-01 03:21:00,68.3,63.3,29.92,SSW,212,0.0,0.0,84,0.00,CLR,,0.00,WeatherDisplay:10.37,2013-06-01 07:21:00,
2013-06-01 03:26:00,68.1,63.1,29.92,SSW,212,0.0,0.0,84,0.00,CLR,,0.00,WeatherDisplay:10.37,2013-06-01 07:26:00,
2013-06-01 03:31:00,68.1,63.1,29.92,SSW,212,0.0,0.0,84,0.00,CLR,,0.00,WeatherDisplay:10.37,2013-06-01 07:31:00,
2013-06-01 03:37:00,68.1,63.4,29.92,SSW,212,0.0,0.0,85,0.00,CLR,,0.00,WeatherDisplay:10.37,2013-06-01 07:37:00,
2013-06-01 03:42:00,68.1,63.4,29.92,SSW,212,0.0,0.0,85,0.00,CLR,,0.00,WeatherDisplay:10.37,2013-06-01 07:42:00,
2013-06-01 03:47:00,67.9,63.2,29.92,SSW,212,0.0,0.0,85,0.00,CLR,,0.00,WeatherDisplay:10.37,2013-06-01 07:47:00,
2013-06-01 03:52:00,67.8,63.5,29.92,SSW,212,0.0,0.0,86,0.00,CLR,,0.00,WeatherDisplay:10.37,2013-06-01 07:52:00,
2013-06-01 03:57:00,67.6,63.6,29.92,SSW,212,0.0,0.0,87,0.00,CLR,,0.00,WeatherDisplay:10.37,2013-06-01 07:57:00,
2013-06-01 04:02:00,67.4,63.4,29.92,SSW,212,0.0,0.0,87,0.00,CLR,,0.00,WeatherDisplay:10.37,2013-06-01 08:02:00,
2013-06-01 04:08:00,67.3,63.3,29.92,SSW,212,0.0,0.0,87,0.00,CLR,,0.00,WeatherDisplay:10.37,2013-06-01 08:08:00,
2013-06-01 04:13:00,66.9,63.2,29.92,SSW,212,0.0,0.0,88,0.00,CLR,,0.00,WeatherDisplay:10.37,2013-06-01 08:13:00,
2013-06-01 04:18:00,66.9,63.2,29.92,SSW,212,0.0,0.0,88,0.00,CLR,,0.00,WeatherDisplay:10.37,2013-06-01 08:18:00,
2013-06-01 04:23:00,66.9,63.2,29.92,SSW,212,0.0,0.0,88,0.00,CLR,,0.00,WeatherDisplay:10.37,2013-06-01 08:23:00,
2013-06-01 04:29:00,66.9,63.6,29.92,SSW,212,0.0,0.0,89,0.00,CLR,,0.00,WeatherDisplay:10.37,2013-06-01 08:29:00,
2013-06-01 04:34:00,66.8,63.5,29.92,SSW,212,0.0,0.0,89,0.00,CLR,,0.00,WeatherDisplay:10.37,2013-06-01 08:34:00,
2013-06-01 04:39:00,66.6,63.3,29.92,SSW,212,0.0,0.0,89,0.00,CLR,,0.00,WeatherDisplay:10.37,2013-06-01 08:39:00,
2013-06-01 04:44:00,66.6,63.3,29.92,SSW,212,0.0,0.0,89,0.00,CLR,,0.00,WeatherDisplay:10.37,2013-06-01 08:44:00,
2013-06-01 04:49:00,66.6,63.6,29.92,SSW,212,0.0,0.0,90,0.00,CLR,,0.00,WeatherDisplay:10.37,2013-06-01 08:49:00,
2013-06-01 04:54:00,66.8,63.8,29.92,SSW,212,0.0,0.0,90,0.00,CLR,,0.00,WeatherDisplay:10.37,2013-06-01 08:54:00,
2013-06-01 04:59:00,66.3,63.3,29.92,SSW,212,0.0,0.0,90,0.00,CLR,,0.00,WeatherDisplay:10.37,2013-06-01 08:59:00,
2013-06-01 05:05:00,65.8,62.8,29.92,SSW,212,0.0,0.0,90,0.00,CLR,,0.00,WeatherDisplay:10.37,2013-06-01 09:05:00,
2013-06-01 05:10:00,65.6,62.9,29.92,SSW,212,0.0,0.0,91,0.00,CLR,,0.00,WeatherDisplay:10.37,2013-06-01 09:10:00,
2013-06-01 05:15:00,65.6,62.9,29.92,SSW,192,0.0,0.0,91,0.00,CLR,,0.00,WeatherDisplay:10.37,2013-06-01 09:15:00,
2013-06-01 05:20:00,65.8,63.1,29.92,SSW,192,0.0,0.0,91,0.00,CLR,,0.00,WeatherDisplay:10.37,2013-06-01 09:20:00,
2013-06-01 05:25:00,65.8,63.1,29.92,SSW,192,0.0,0.0,91,0.00,CLR,,0.00,WeatherDisplay:10.37,2013-06-01 09:25:00,
2013-06-01 05:30:00,65.5,62.8,29.92,SSW,192,0.0,0.0,91,0.00,CLR,,0.00,WeatherDisplay:10.37,2013-06-01 09:30:00,
2013-06-01 05:35:00,64.8,62.1,29.92,SSW,192,0.0,0.0,91,0.00,CLR,,0.00,WeatherDisplay:10.37,2013-06-01 09:35:00,
2013-06-01 05:41:00,65.0,62.6,29.92,SSW,192,0.0,0.0,92,0.00,CLR,,0.00,WeatherDisplay:10.37,2013-06-01 09:41:00,
2013-06-01 05:46:00,65.2,62.8,29.92,SSW,192,0.0,0.0,92,0.00,CLR,,0.00,WeatherDisplay:10.37,2013-06-01 09:46:00,
2013-06-01 05:51:00,65.3,63.2,29.92,SSW,192,0.0,0.0,93,0.00,CLR,,0.00,WeatherDisplay:10.37,2013-06-01 09:51:00,
2013-06-01 05:56:00,65.5,63.4,29.93,SSW,192,0.0,0.0,93,0.00,CLR,,0.00,WeatherDisplay:10.37,2013-06-01 09:56:00,
2013-06-01 06:01:00,65.5,63.4,29.93,SSW,192,0.0,0.0,93,0.00,CLR,,0.00,WeatherDisplay:10.37,2013-06-01 10:01:00,
2013-06-01 06:07:00,65.6,63.5,29.93,SSW,192,0.0,0.0,93,0.00,CLR,,0.00,WeatherDisplay:10.37,2013-06-01 10:07:00,
2013-06-01 06:12:00,65.6,63.5,29.93,SSW,193,0.0,0.0,93,0.00,CLR,,0.00,WeatherDisplay:10.37,2013-06-01 10:12:00,
2013-06-01 06:17:00,65.8,63.7,29.92,SSW,193,0.0,0.0,93,0.00,CLR,,0.00,WeatherDisplay:10.37,2013-06-01 10:17:00,
2013-06-01 06:22:00,65.6,63.5,29.92,SSW,192,0.0,0.0,93,0.00,CLR,,0.00,WeatherDisplay:10.37,2013-06-01 10:22:00,
2013-06-01 06:27:00,66.0,63.9,29.93,SSW,193,0.0,0.0,93,0.00,CLR,,0.00,WeatherDisplay:10.37,2013-06-01 10:27:00,
2013-06-01 06:32:00,65.8,63.7,29.93,SSW,206,0.0,0.0,93,0.00,CLR,,0.00,WeatherDisplay:10.37,2013-06-01 10:32:00,
2013-06-01 06:37:00,66.1,64.0,29.93,SSW,206,0.0,0.0,93,0.00,CLR,,0.00,WeatherDisplay:10.37,2013-06-01 10:37:00,
2013-06-01 06:42:00,66.6,64.5,29.93,SSW,206,0.0,0.0,93,0.00,CLR,,0.00,WeatherDisplay:10.37,2013-06-01 10:42:00,
2013-06-01 06:48:00,66.9,64.8,29.93,SSW,206,0.1,1.2,93,0.00,CLR,,0.00,WeatherDisplay:10.37,2013-06-01 10:48:00,
2013-06-01 06:53:00,67.4,65.0,29.93,SSW,206,0.0,0.0,92,0.00,CLR,,0.00,WeatherDisplay:10.37,2013-06-01 10:53:00,
2013-06-01 06:58:00,67.9,65.5,29.93,SSW,209,0.0,0.0,92,0.00,CLR,,0.00,WeatherDisplay:10.37,2013-06-01 10:58:00,
2013-06-01 07:03:00,68.3,65.6,29.93,SSW,209,0.0,0.0,91,0.00,CLR,,0.00,WeatherDisplay:10.37,2013-06-01 11:03:00,
2013-06-01 07:08:00,68.8,65.7,29.94,SSW,210,0.0,0.0,90,0.00,CLR,,0.00,WeatherDisplay:10.37,2013-06-01 11:08:00,
2013-06-01 07:13:00,69.1,66.0,29.94,SSW,213,0.4,0.0,90,0.00,CLR,,0.00,WeatherDisplay:10.37,2013-06-01 11:13:00,
2013-06-01 07:18:00,69.4,66.3,29.94,SW,229,0.0,4.6,90,0.00,CLR,,0.00,WeatherDisplay:10.37,2013-06-01 11:18:00,
2013-06-01 07:23:00,69.8,66.4,29.94,WSW,251,0.1,1.2,89,0.00,CLR,,0.00,WeatherDisplay:10.37,2013-06-01 11:23:00,
2013-06-01 07:28:00,70.1,66.4,29.94,SW,229,1.8,3.5,88,0.00,CLR,,0.00,WeatherDisplay:10.37,2013-06-01 11:28:00,
2013-06-01 07:33:00,70.3,66.2,29.94,SSW,198,2.1,4.6,87,0.00,CLR,,0.00,WeatherDisplay:10.37,2013-06-01 11:33:00,
2013-06-01 07:39:00,70.6,66.2,29.94,SW,215,1.9,3.5,86,0.00,CLR,,0.00,WeatherDisplay:10.37,2013-06-01 11:39:00,
2013-06-01 07:44:00,70.6,65.9,29.94,SW,219,1.6,2.3,85,0.00,CLR,,0.00,WeatherDisplay:10.37,2013-06-01 11:44:00,
2013-06-01 07:49:00,70.9,66.2,29.94,SSW,198,0.6,3.5,85,0.00,CLR,,0.00,WeatherDisplay:10.37,2013-06-01 11:49:00,
2013-06-01 07:54:00,71.1,66.0,29.94,South,191,2.4,4.6,84,0.00,CLR,,0.00,WeatherDisplay:10.37,2013-06-01 11:54:00,
2013-06-01 07:59:00,71.3,66.2,29.94,SSW,200,0.0,0.0,84,0.00,CLR,,0.00,WeatherDisplay:10.37,2013-06-01 11:59:00,
2013-06-01 08:04:00,71.6,66.2,29.95,SW,226,5.7,5.8,83,0.00,CLR,,0.00,WeatherDisplay:10.37,2013-06-01 12:04:00,
2013-06-01 08:09:00,71.8,66.4,29.94,South,182,1.8,5.0,83,0.00,CLR,,0.00,WeatherDisplay:10.37,2013-06-01 12:09:00,
2013-06-01 08:14:00,72.1,66.3,29.94,SSW,192,2.1,3.5,82,0.00,CLR,,0.00,WeatherDisplay:10.37,2013-06-01 12:14:00,
2013-06-01 08:20:00,72.3,66.1,29.94,South,184,2.0,6.9,81,0.00,CLR,,0.00,WeatherDisplay:10.37,2013-06-01 12:20:00,
2013-06-01 08:25:00,72.5,66.3,29.93,South,178,2.6,5.8,81,0.00,CLR,,0.00,WeatherDisplay:10.37,2013-06-01 12:25:00,
2013-06-01 08:30:00,72.8,66.6,29.94,SSW,193,0.0,0.0,81,0.00,CLR,,0.00,WeatherDisplay:10.37,2013-06-01 12:30:00,
2013-06-01 08:35:00,73.0,66.5,29.94,SSW,196,3.7,5.8,80,0.00,CLR,,0.00,WeatherDisplay:10.37,2013-06-01 12:35:00,
2013-06-01 08:40:00,73.5,66.9,29.94,SSW,193,2.1,3.5,80,0.00,CLR,,0.00,WeatherDisplay:10.37,2013-06-01 12:40:00,
2013-06-01 08:45:00,73.9,67.0,29.94,SSW,213,1.8,3.5,79,0.00,CLR,,0.00,WeatherDisplay:10.37,2013-06-01 12:45:00,
2013-06-01 08:50:00,74.2,66.9,29.94,SSW,192,4.1,5.8,78,0.00,CLR,,0.00,WeatherDisplay:10.37,2013-06-01 12:50:00,
2013-06-01 08:55:00,74.6,66.9,29.94,SSW,208,1.2,3.5,77,0.00,CLR,,0.00,WeatherDisplay:10.37,2013-06-01 12:55:00,
2013-06-01 09:00:00,74.9,67.2,29.94,South,169,0.0,2.3,77,0.00,CLR,,0.00,WeatherDisplay:10.37,2013-06-01 13:00:00,
2013-06-01 09:06:00,75.3,67.6,29.94,South,185,0.0,0.0,77,0.00,CLR,,0.00,WeatherDisplay:10.37,2013-06-01 13:06:00,
2013-06-01 09:11:00,75.1,67.0,29.94,South,178,5.6,8.1,76,0.00,CLR,,0.00,WeatherDisplay:10.37,2013-06-01 13:11:00,
2013-06-01 09:16:00,75.4,67.7,29.94,SW,219,1.7,6.9,77,0.00,CLR,,0.00,WeatherDisplay:10.37,2013-06-01 13:16:00,
2013-06-01 09:21:00,75.8,67.3,29.94,South,174,0.9,4.6,75,0.00,CLR,,0.00,WeatherDisplay:10.37,2013-06-01 13:21:00,
2013-06-01 09:26:00,76.3,67.4,29.93,South,178,2.5,5.0,74,0.00,CLR,,0.00,WeatherDisplay:10.37,2013-06-01 13:26:00,
2013-06-01 09:31:00,76.3,67.0,29.93,SSW,208,2.9,8.1,73,0.00,CLR,,0.00,WeatherDisplay:10.37,2013-06-01 13:31:00,
2013-06-01 09:36:00,76.8,67.1,29.92,South,179,2.3,6.9,72,0.00,CLR,,0.00,WeatherDisplay:10.37,2013-06-01 13:36:00,
2013-06-01 09:41:00,77.0,66.9,29.92,South,182,0.3,4.6,71,0.00,CLR,,0.00,WeatherDisplay:10.37,2013-06-01 13:41:00,
2013-06-01 09:46:00,77.0,66.9,29.92,SSW,203,3.9,6.9,71,0.00,CLR,,0.00,WeatherDisplay:10.37,2013-06-01 13:46:00,
2013-06-01 09:52:00,77.2,67.1,29.92,SSW,196,4.5,6.9,71,0.00,CLR,,0.00,WeatherDisplay:10.37,2013-06-01 13:52:00,
2013-06-01 09:57:00,77.4,67.3,29.92,SSW,199,6.0,9.2,71,0.00,CLR,,0.00,WeatherDisplay:10.37,2013-06-01 13:57:00,
2013-06-01 10:02:00,77.4,66.8,29.92,SSE,151,2.1,4.6,70,0.00,CLR,,0.00,WeatherDisplay:10.37,2013-06-01 14:02:00,
2013-06-01 10:07:00,77.7,67.5,29.91,SSE,154,1.6,4.6,71,0.00,CLR,,0.00,WeatherDisplay:10.37,2013-06-01 14:07:00,
2013-06-01 10:12:00,77.9,66.9,29.91,South,175,1.1,5.8,69,0.00,CLR,,0.00,WeatherDisplay:10.37,2013-06-01 14:12:00,
2013-06-01 10:17:00,78.5,67.9,29.91,SW,216,1.6,5.0,70,0.00,CLR,,0.00,WeatherDisplay:10.37,2013-06-01 14:17:00,
2013-06-01 10:22:00,78.8,66.9,29.91,WSW,246,0.3,8.0,67,0.00,CLR,,0.00,WeatherDisplay:10.37,2013-06-01 14:22:00,
2013-06-01 10:28:00,79.2,66.9,29.92,SSW,210,4.2,6.0,66,0.00,CLR,,0.00,WeatherDisplay:10.37,2013-06-01 14:28:00,
2013-06-01 10:33:00,79.6,67.7,29.91,SSW,200,0.0,2.3,67,0.00,CLR,,0.00,WeatherDisplay:10.37,2013-06-01 14:33:00,
2013-06-01 10:38:00,79.6,66.3,29.91,South,191,3.6,5.8,64,0.00,CLR,,0.00,WeatherDisplay:10.37,2013-06-01 14:38:00,
2013-06-01 10:44:00,79.6,66.8,29.91,SSW,195,3.1,10.4,65,0.00,CLR,,0.00,WeatherDisplay:10.37,2013-06-01 14:44:00,
2013-06-01 10:50:00,80.1,66.8,29.91,South,169,0.5,4.6,64,0.00,CLR,,0.00,WeatherDisplay:10.37,2013-06-01 14:50:00,
2013-06-01 10:55:00,80.7,66.9,29.91,SSW,209,2.8,6.0,63,0.00,CLR,,0.00,WeatherDisplay:10.37,2013-06-01 14:55:00,
2013-06-01 11:00:00,80.7,66.9,29.91,SW,232,4.4,8.1,63,0.00,CLR,,0.00,WeatherDisplay:10.37,2013-06-01 15:00:00,
2013-06-01 11:05:00,81.1,66.8,29.91,WNW,285,1.9,6.0,62,0.00,CLR,,0.00,WeatherDisplay:10.37,2013-06-01 15:05:00,
2013-06-01 11:10:00,81.2,66.9,29.91,SSW,195,3.1,5.8,62,0.00,CLR,,0.00,WeatherDisplay:10.37,2013-06-01 15:10:00,
2013-06-01 11:15:00,81.6,67.8,29.91,South,172,0.0,1.2,63,0.00,CLR,,0.00,WeatherDisplay:10.37,2013-06-01 15:15:00,
2013-06-01 11:20:00,82.0,66.7,29.91,WSW,258,2.3,8.1,60,0.00,CLR,,0.00,WeatherDisplay:10.37,2013-06-01 15:20:00,
2013-06-01 11:25:00,82.2,67.9,29.91,SSW,208,3.3,5.8,62,0.00,CLR,,0.00,WeatherDisplay:10.37,2013-06-01 15:25:00,
2013-06-01 11:30:00,82.6,68.7,29.91,SSW,213,0.8,3.5,63,0.00,CLR,,0.00,WeatherDisplay:10.37,2013-06-01 15:30:00,
2013-06-01 11:36:00,82.4,68.5,29.91,South,186,0.9,9.2,63,0.00,CLR,,0.00,WeatherDisplay:10.37,2013-06-01 15:36:00,
2013-06-01 11:41:00,82.4,68.1,29.91,SW,216,5.0,8.1,62,0.00,CLR,,0.00,WeatherDisplay:10.37,2013-06-01 15:41:00,
2013-06-01 11:46:00,83.2,68.3,29.90,South,182,0.0,5.8,61,0.00,CLR,,0.00,WeatherDisplay:10.37,2013-06-01 15:46:00,
2013-06-01 11:51:00,83.6,68.2,29.91,SW,230,3.1,6.9,60,0.00,CLR,,0.00,WeatherDisplay:10.37,2013-06-01 15:51:00,
2013-06-01 11:56:00,83.6,69.2,29.91,SW,232,5.0,8.0,62,0.00,CLR,,0.00,WeatherDisplay:10.37,2013-06-01 15:56:00,
2013-06-01 12:01:00,83.2,67.9,29.91,SSW,213,4.9,6.9,60,0.00,CLR,,0.00,WeatherDisplay:10.37,2013-06-01 16:01:00,
2013-06-01 12:06:00,83.4,68.1,29.90,WSW,246,2.3,6.9,60,0.00,CLR,,0.00,WeatherDisplay:10.37,2013-06-01 16:06:00,
2013-06-01 12:12:00,83.6,70.1,29.90,South,169,5.3,6.9,64,0.00,CLR,,0.00,WeatherDisplay:10.37,2013-06-01 16:12:00,
2013-06-01 12:17:00,83.2,68.8,29.91,SW,217,0.9,6.9,62,0.00,CLR,,0.00,WeatherDisplay:10.37,2013-06-01 16:17:00,
2013-06-01 12:22:00,83.4,68.1,29.90,South,179,4.4,10.4,60,0.00,CLR,,0.00,WeatherDisplay:10.37,2013-06-01 16:22:00,
2013-06-01 12:27:00,83.4,67.6,29.90,SSW,206,5.1,8.1,59,0.00,CLR,,0.00,WeatherDisplay:10.37,2013-06-01 16:27:00,
2013-06-01 12:32:00,84.0,70.5,29.90,South,186,0.9,3.5,64,0.00,CLR,,0.00,WeatherDisplay:10.37,2013-06-01 16:32:00,
2013-06-01 12:37:00,84.3,69.4,29.89,SSW,208,4.2,5.8,61,0.00,CLR,,0.00,WeatherDisplay:10.37,2013-06-01 16:37:00,
2013-06-01 12:42:00,83.8,69.9,29.89,SSW,192,1.1,4.6,63,0.00,CLR,,0.00,WeatherDisplay:10.37,2013-06-01 16:42:00,
2013-06-01 12:47:00,84.1,68.7,29.89,SSW,209,5.3,6.9,60,0.00,CLR,,0.00,WeatherDisplay:10.37,2013-06-01 16:47:00,
2013-06-01 12:52:00,84.0,68.1,29.89,South,169,9.6,12.7,59,0.00,CLR,,0.00,WeatherDisplay:10.37,2013-06-01 16:52:00,
2013-06-01 12:57:00,83.6,68.7,29.89,SSW,196,7.2,11.5,61,0.00,CLR,,0.00,WeatherDisplay:10.37,2013-06-01 16:57:00,
2013-06-01 13:03:00,84.0,69.1,29.89,SSW,192,4.2,7.0,61,0.00,CLR,,0.00,WeatherDisplay:10.37,2013-06-01 17:03:00,
2013-06-01 13:08:00,84.1,68.7,29.88,SSE,150,4.9,5.8,60,0.00,CLR,,0.00,WeatherDisplay:10.37,2013-06-01 17:08:00,
2013-06-01 13:13:00,84.3,68.9,29.88,South,174,5.8,9.2,60,0.00,CLR,,0.00,WeatherDisplay:10.37,2013-06-01 17:13:00,
2013-06-01 13:18:00,84.5,68.6,29.88,SSE,155,5.3,8.1,59,0.00,CLR,,0.00,WeatherDisplay:10.37,2013-06-01 17:18:00,
2013-06-01 13:23:00,84.3,67.4,29.88,South,176,7.4,11.5,57,0.00,CLR,,0.00,WeatherDisplay:10.37,2013-06-01 17:23:00,
2013-06-01 13:28:00,84.5,69.1,29.88,South,171,0.0,1.2,60,0.00,CLR,,0.00,WeatherDisplay:10.37,2013-06-01 17:28:00,
2013-06-01 13:33:00,85.5,70.5,29.87,South,176,0.0,0.0,61,0.00,CLR,,0.00,WeatherDisplay:10.37,2013-06-01 17:33:00,
2013-06-01 13:38:00,85.3,67.8,29.88,SSW,198,6.6,9.2,56,0.00,CLR,,0.00,WeatherDisplay:10.37,2013-06-01 17:38:00,
2013-06-01 13:44:00,85.1,68.7,29.87,SSE,151,3.2,5.0,58,0.00,CLR,,0.00,WeatherDisplay:10.37,2013-06-01 17:44:00,
2013-06-01 13:49:00,84.7,68.3,29.87,South,186,8.2,11.5,58,0.00,CLR,,0.00,WeatherDisplay:10.37,2013-06-01 17:49:00,
2013-06-01 13:54:00,84.9,69.9,29.87,South,179,5.5,11.5,61,0.00,CLR,,0.00,WeatherDisplay:10.37,2013-06-01 17:54:00,
2013-06-01 13:59:00,85.1,68.7,29.87,SW,232,4.3,7.0,58,0.00,CLR,,0.00,WeatherDisplay:10.37,2013-06-01 17:59:00,
2013-06-01 14:04:00,85.1,67.1,29.86,SSW,193,7.3,11.5,55,0.00,CLR,,0.00,WeatherDisplay:10.37,2013-06-01 18:04:00,
2013-06-01 14:09:00,84.7,68.3,29.86,South,176,0.5,9.2,58,0.00,CLR,,0.00,WeatherDisplay:10.37,2013-06-01 18:09:00,
2013-06-01 14:14:00,85.1,67.6,29.86,South,184,1.0,10.4,56,0.00,CLR,,0.00,WeatherDisplay:10.37,2013-06-01 18:14:00,
2013-06-01 14:19:00,85.7,68.2,29.86,SSW,199,4.7,9.0,56,0.00,CLR,,0.00,WeatherDisplay:10.37,2013-06-01 18:19:00,
2013-06-01 14:25:00,85.7,67.1,29.86,SSW,210,8.1,12.7,54,0.00,CLR,,0.00,WeatherDisplay:10.37,2013-06-01 18:25:00,
2013-06-01 14:30:00,85.7,67.7,29.86,South,175,5.1,11.5,55,0.00,CLR,,0.00,WeatherDisplay:10.37,2013-06-01 18:30:00,
2013-06-01 14:35:00,85.9,68.4,29.86,South,188,5.6,11.0,56,0.00,CLR,,0.00,WeatherDisplay:10.37,2013-06-01 18:35:00,
2013-06-01 14:40:00,85.5,67.0,29.86,South,179,8.1,11.5,54,0.00,CLR,,0.00,WeatherDisplay:10.37,2013-06-01 18:40:00,
2013-06-01 14:45:00,85.9,68.4,29.86,SSE,164,3.7,5.8,56,0.00,CLR,,0.00,WeatherDisplay:10.37,2013-06-01 18:45:00,
2013-06-01 14:50:00,86.1,67.5,29.86,South,174,4.1,6.9,54,0.00,CLR,,0.00,WeatherDisplay:10.37,2013-06-01 18:50:00,
2013-06-01 14:55:00,86.5,67.9,29.86,SSW,200,1.6,3.5,54,0.00,CLR,,0.00,WeatherDisplay:10.37,2013-06-01 18:55:00,
2013-06-01 15:00:00,85.5,67.5,29.86,South,181,5.3,8.1,55,0.00,CLR,,0.00,WeatherDisplay:10.37,2013-06-01 19:00:00,
2013-06-01 15:05:00,85.7,67.7,29.86,SSE,152,6.0,6.0,55,0.00,CLR,,0.00,WeatherDisplay:10.37,2013-06-01 19:05:00,
2013-06-01 15:10:00,86.1,67.5,29.86,SSW,192,5.1,12.0,54,0.00,CLR,,0.00,WeatherDisplay:10.37,2013-06-01 19:10:00,
2013-06-01 15:15:00,86.3,68.2,29.86,SW,217,3.5,4.6,55,0.00,CLR,,0.00,WeatherDisplay:10.37,2013-06-01 19:15:00,
2013-06-01 15:21:00,86.5,67.3,29.86,South,186,5.5,11.5,53,0.00,CLR,,0.00,WeatherDisplay:10.37,2013-06-01 19:21:00,
2013-06-01 15:26:00,86.3,67.7,29.86,South,175,1.1,3.5,54,0.00,CLR,,0.00,WeatherDisplay:10.37,2013-06-01 19:26:00,
2013-06-01 15:31:00,86.5,67.9,29.85,SSW,200,5.7,11.5,54,0.00,CLR,,0.00,WeatherDisplay:10.37,2013-06-01 19:31:00,
2013-06-01 15:36:00,86.3,67.2,29.85,SW,223,4.2,8.0,53,0.00,CLR,,0.00,WeatherDisplay:10.37,2013-06-01 19:36:00,
2013-06-01 15:41:00,86.1,67.5,29.85,South,191,5.1,11.5,54,0.00,CLR,,0.00,WeatherDisplay:10.37,2013-06-01 19:41:00,
2013-06-01 15:46:00,86.1,67.0,29.85,SSW,199,5.5,8.1,53,0.00,CLR,,0.00,WeatherDisplay:10.37,2013-06-01 19:46:00,
2013-06-01 15:52:00,85.9,66.8,29.84,South,176,4.4,10.4,53,0.00,CLR,,0.00,WeatherDisplay:10.37,2013-06-01 19:52:00,
2013-06-01 15:57:00,86.1,67.0,29.85,South,178,5.9,10.4,53,0.00,CLR,,0.00,WeatherDisplay:10.37,2013-06-01 19:57:00,
2013-06-01 16:02:00,85.7,66.6,29.85,SSW,210,3.7,11.5,53,0.00,CLR,,0.00,WeatherDisplay:10.37,2013-06-01 20:02:00,
2013-06-01 16:07:00,85.5,67.0,29.85,SSW,202,2.2,10.4,54,0.00,CLR,,0.00,WeatherDisplay:10.37,2013-06-01 20:07:00,
2013-06-01 16:12:00,85.3,66.8,29.85,South,169,6.2,11.5,54,0.00,CLR,,0.00,WeatherDisplay:10.37,2013-06-01 20:12:00,
2013-06-01 16:17:00,85.1,66.6,29.85,SSW,199,4.8,6.9,54,0.00,CLR,,0.00,WeatherDisplay:10.37,2013-06-01 20:17:00,
2013-06-01 16:22:00,84.9,67.5,29.85,South,184,4.6,10.4,56,0.00,CLR,,0.00,WeatherDisplay:10.37,2013-06-01 20:22:00,
2013-06-01 16:27:00,85.1,66.6,29.85,SSW,199,4.3,8.1,54,0.00,CLR,,0.00,WeatherDisplay:10.37,2013-06-01 20:27:00,
2013-06-01 16:32:00,85.3,67.3,29.85,South,178,4.9,5.8,55,0.00,CLR,,0.00,WeatherDisplay:10.37,2013-06-01 20:32:00,
2013-06-01 16:37:00,85.3,67.8,29.84,South,174,4.2,12.7,56,0.00,CLR,,0.00,WeatherDisplay:10.37,2013-06-01 20:37:00,
2013-06-01 16:42:00,85.5,68.5,29.84,SE,133,2.9,6.9,57,0.00,CLR,,0.00,WeatherDisplay:10.37,2013-06-01 20:42:00,
2013-06-01 16:48:00,85.9,68.4,29.84,South,176,2.2,3.5,56,0.00,CLR,,0.00,WeatherDisplay:10.37,2013-06-01 20:48:00,
2013-06-01 16:53:00,85.9,67.3,29.84,SSE,164,6.5,11.5,54,0.00,CLR,,0.00,WeatherDisplay:10.37,2013-06-01 20:53:00,
2013-06-01 16:58:00,85.9,67.3,29.84,SSW,206,1.5,5.8,54,0.00,CLR,,0.00,WeatherDisplay:10.37,2013-06-01 20:58:00,
2013-06-01 17:03:00,86.3,67.7,29.84,South,188,3.1,6.9,54,0.00,CLR,,0.00,WeatherDisplay:10.37,2013-06-01 21:03:00,
2013-06-01 17:08:00,86.1,67.5,29.84,South,181,2.9,5.8,54,0.00,CLR,,0.00,WeatherDisplay:10.37,2013-06-01 21:08:00,
2013-06-01 17:13:00,85.9,66.2,29.84,SW,215,6.4,10.0,52,0.00,CLR,,0.00,WeatherDisplay:10.37,2013-06-01 21:13:00,
2013-06-01 17:18:00,86.1,67.0,29.83,South,179,5.8,10.4,53,0.00,CLR,,0.00,WeatherDisplay:10.37,2013-06-01 21:18:00,
2013-06-01 17:23:00,86.3,66.6,29.83,SSW,205,5.6,11.5,52,0.00,CLR,,0.00,WeatherDisplay:10.37,2013-06-01 21:23:00,
2013-06-01 17:28:00,86.3,66.6,29.83,SSE,168,4.1,9.2,52,0.00,CLR,,0.00,WeatherDisplay:10.37,2013-06-01 21:28:00,
2013-06-01 17:33:00,86.3,66.0,29.83,SSW,208,7.0,11.5,51,0.00,CLR,,0.00,WeatherDisplay:10.37,2013-06-01 21:33:00,
2013-06-01 17:39:00,86.1,65.3,29.83,SSW,198,6.8,11.5,50,0.00,CLR,,0.00,WeatherDisplay:10.37,2013-06-01 21:39:00,
2013-06-01 17:44:00,86.3,66.6,29.82,South,186,5.2,12.7,52,0.00,CLR,,0.00,WeatherDisplay:10.37,2013-06-01 21:44:00,
2013-06-01 17:49:00,86.5,67.9,29.82,SSE,167,4.0,6.9,54,0.00,CLR,,0.00,WeatherDisplay:10.37,2013-06-01 21:49:00,
2013-06-01 17:54:00,86.5,66.8,29.82,SSE,158,3.6,5.8,52,0.00,CLR,,0.00,WeatherDisplay:10.37,2013-06-01 21:54:00,
2013-06-01 17:59:00,86.3,67.2,29.82,SE,145,5.6,11.5,53,0.00,CLR,,0.00,WeatherDisplay:10.37,2013-06-01 21:59:00,
2013-06-01 18:05:00,86.3,68.2,29.82,SSE,148,0.0,1.2,55,0.00,CLR,,0.00,WeatherDisplay:10.37,2013-06-01 22:05:00,
2013-06-01 18:10:00,86.3,67.2,29.82,South,174,2.9,4.6,53,0.00,CLR,,0.00,WeatherDisplay:10.37,2013-06-01 22:10:00,
2013-06-01 18:15:00,86.1,67.0,29.82,South,189,4.5,6.9,53,0.00,CLR,,0.00,WeatherDisplay:10.37,2013-06-01 22:15:00,
2013-06-01 18:20:00,86.1,65.9,29.82,South,175,1.3,8.1,51,0.00,CLR,,0.00,WeatherDisplay:10.37,2013-06-01 22:20:00,
2013-06-01 18:25:00,85.9,65.7,29.82,South,176,1.9,5.8,51,0.00,CLR,,0.00,WeatherDisplay:10.37,2013-06-01 22:25:00,
2013-06-01 18:30:00,85.7,66.0,29.82,South,176,3.9,5.8,52,0.00,CLR,,0.00,WeatherDisplay:10.37,2013-06-01 22:30:00,
2013-06-01 18:35:00,85.7,66.0,29.82,South,175,3.0,9.2,52,0.00,CLR,,0.00,WeatherDisplay:10.37,2013-06-01 22:35:00,
2013-06-01 18:41:00,85.5,66.4,29.82,SSW,196,2.0,8.1,53,0.00,CLR,,0.00,WeatherDisplay:10.37,2013-06-01 22:41:00,
2013-06-01 18:46:00,85.3,66.8,29.82,South,185,3.7,5.8,54,0.00,CLR,,0.00,WeatherDisplay:10.37,2013-06-01 22:46:00,
2013-06-01 18:51:00,85.1,66.0,29.82,SSW,192,5.4,8.1,53,0.00,CLR,,0.00,WeatherDisplay:10.37,2013-06-01 22:51:00,
2013-06-01 18:56:00,84.9,66.4,29.82,South,181,3.1,5.8,54,0.00,CLR,,0.00,WeatherDisplay:10.37,2013-06-01 22:56:00,
2013-06-01 19:01:00,84.7,66.2,29.81,South,169,3.7,9.2,54,0.00,CLR,,0.00,WeatherDisplay:10.37,2013-06-01 23:01:00,
2013-06-01 19:06:00,84.5,66.0,29.82,South,191,5.6,11.5,54,0.00,CLR,,0.00,WeatherDisplay:10.37,2013-06-01 23:06:00,
2013-06-01 19:12:00,84.5,66.6,29.82,South,186,2.6,3.5,55,0.00,CLR,,0.00,WeatherDisplay:10.37,2013-06-01 23:12:00,
2013-06-01 19:17:00,84.1,66.2,29.81,South,191,3.4,5.8,55,0.00,CLR,,0.00,WeatherDisplay:10.37,2013-06-01 23:17:00,
2013-06-01 19:22:00,84.0,66.1,29.82,South,185,4.0,5.8,55,0.00,CLR,,0.00,WeatherDisplay:10.37,2013-06-01 23:22:00,
2013-06-01 19:27:00,83.8,66.4,29.82,South,191,2.1,4.6,56,0.00,CLR,,0.00,WeatherDisplay:10.37,2013-06-01 23:27:00,
2013-06-01 19:32:00,83.6,66.8,29.82,SSW,205,2.6,3.5,57,0.00,CLR,,0.00,WeatherDisplay:10.37,2013-06-01 23:32:00,
2013-06-01 19:37:00,83.4,66.6,29.82,South,172,0.0,0.0,57,0.00,CLR,,0.00,WeatherDisplay:10.37,2013-06-01 23:37:00,
2013-06-01 19:42:00,83.0,66.7,29.82,South,189,1.3,3.0,58,0.00,CLR,,0.00,WeatherDisplay:10.37,2013-06-01 23:42:00,
2013-06-01 19:47:00,82.6,66.8,29.82,South,182,0.0,0.0,59,0.00,CLR,,0.00,WeatherDisplay:10.37,2013-06-01 23:47:00,
2013-06-01 19:53:00,82.4,66.6,29.83,South,184,0.0,0.0,59,0.00,CLR,,0.00,WeatherDisplay:10.37,2013-06-01 23:53:00,
2013-06-01 19:58:00,82.2,66.4,29.82,South,186,0.0,0.0,59,0.00,CLR,,0.00,WeatherDisplay:10.37,2013-06-01 23:58:00,
2013-06-01 20:03:00,82.0,66.7,29.82,South,186,0.0,0.0,60,0.00,CLR,,0.00,WeatherDisplay:10.37,2013-06-02 00:03:00,
2013-06-01 20:08:00,81.8,67.0,29.83,South,188,0.0,0.0,61,0.00,CLR,,0.00,WeatherDisplay:10.37,2013-06-02 00:08:00,
2013-06-01 20:13:00,81.6,66.8,29.83,South,188,0.0,0.0,61,0.00,CLR,,0.00,WeatherDisplay:10.37,2013-06-02 00:13:00,
2013-06-01 20:18:00,81.4,67.1,29.83,South,188,0.0,0.0,62,0.00,CLR,,0.00,WeatherDisplay:10.37,2013-06-02 00:18:00,
2013-06-01 20:23:00,81.2,66.9,29.83,South,191,0.0,0.0,62,0.00,CLR,,0.00,WeatherDisplay:10.37,2013-06-02 00:23:00,
2013-06-01 20:29:00,80.9,66.7,29.83,SSW,192,0.0,0.0,62,0.00,CLR,,0.00,WeatherDisplay:10.37,2013-06-02 00:29:00,
2013-06-01 20:34:00,80.7,66.9,29.83,SSW,192,0.0,0.0,63,0.00,CLR,,0.00,WeatherDisplay:10.37,2013-06-02 00:34:00,
2013-06-01 20:39:00,80.3,67.0,29.83,South,191,0.0,0.0,64,0.00,CLR,,0.00,WeatherDisplay:10.37,2013-06-02 00:39:00,
2013-06-01 20:44:00,80.1,66.8,29.83,South,191,0.0,0.0,64,0.00,CLR,,0.00,WeatherDisplay:10.37,2013-06-02 00:44:00,
2013-06-01 20:49:00,79.9,67.1,29.83,SSW,193,0.0,0.0,65,0.00,CLR,,0.00,WeatherDisplay:10.37,2013-06-02 00:49:00,
2013-06-01 20:54:00,79.8,67.0,29.83,SSW,195,0.0,0.0,65,0.00,CLR,,0.00,WeatherDisplay:10.37,2013-06-02 00:54:00,
2013-06-01 21:00:00,79.6,66.8,29.83,South,188,0.0,0.0,65,0.00,CLR,,0.00,WeatherDisplay:10.37,2013-06-02 01:00:00,
2013-06-01 21:05:00,79.4,66.6,29.83,South,191,0.0,0.0,65,0.00,CLR,,0.00,WeatherDisplay:10.37,2013-06-02 01:05:00,
2013-06-01 21:10:00,79.2,66.9,29.83,South,191,1.3,2.3,66,0.00,CLR,,0.00,WeatherDisplay:10.37,2013-06-02 01:10:00,
2013-06-01 21:16:00,79.0,66.7,29.83,SSW,192,0.0,0.0,66,0.00,CLR,,0.00,WeatherDisplay:10.37,2013-06-02 01:16:00,
2013-06-01 21:21:00,78.8,66.9,29.83,SSW,195,0.0,0.0,67,0.00,CLR,,0.00,WeatherDisplay:10.37,2013-06-02 01:21:00,
2013-06-01 21:26:00,78.8,66.9,29.83,SSW,196,1.5,2.3,67,0.00,CLR,,0.00,WeatherDisplay:10.37,2013-06-02 01:26:00,
2013-06-01 21:31:00,78.6,66.7,29.83,SSW,200,1.0,4.0,67,0.00,CLR,,0.00,WeatherDisplay:10.37,2013-06-02 01:31:00,
2013-06-01 21:36:00,78.6,66.7,29.83,SSW,202,2.2,3.5,67,0.00,CLR,,0.00,WeatherDisplay:10.37,2013-06-02 01:36:00,
2013-06-01 21:42:00,78.5,66.6,29.83,SSW,205,1.8,3.5,67,0.00,CLR,,0.00,WeatherDisplay:10.37,2013-06-02 01:42:00,
2013-06-01 21:47:00,78.3,66.9,29.84,SSW,200,2.4,4.6,68,0.00,CLR,,0.00,WeatherDisplay:10.37,2013-06-02 01:47:00,
2013-06-01 21:52:00,78.3,66.9,29.84,SSW,202,1.8,4.6,68,0.00,CLR,,0.00,WeatherDisplay:10.37,2013-06-02 01:52:00,
2013-06-01 21:57:00,78.1,67.1,29.84,SSW,205,1.0,2.3,69,0.00,CLR,,0.00,WeatherDisplay:10.37,2013-06-02 01:57:00,
2013-06-01 22:02:00,77.7,66.7,29.84,SSW,208,2.2,3.5,69,0.00,CLR,,0.00,WeatherDisplay:10.37,2013-06-02 02:02:00,
2013-06-01 22:07:00,77.6,66.6,29.83,SSW,208,1.5,3.5,69,0.00,CLR,,0.00,WeatherDisplay:10.37,2013-06-02 02:07:00,
2013-06-01 22:12:00,77.6,66.6,29.83,SSW,202,1.4,3.5,69,0.00,CLR,,0.00,WeatherDisplay:10.37,2013-06-02 02:12:00,
2013-06-01 22:18:00,77.4,66.4,29.83,SSW,205,2.8,5.8,69,0.00,CLR,,0.00,WeatherDisplay:10.37,2013-06-02 02:18:00,
2013-06-01 22:23:00,77.4,66.4,29.83,SSW,212,1.0,2.3,69,0.00,CLR,,0.00,WeatherDisplay:10.37,2013-06-02 02:23:00,
2013-06-01 22:28:00,77.4,66.4,29.83,SW,220,0.0,0.0,69,0.00,CLR,,0.00,WeatherDisplay:10.37,2013-06-02 02:28:00,
2013-06-01 22:33:00,77.2,66.7,29.83,SW,220,0.0,0.0,70,0.00,CLR,,0.00,WeatherDisplay:10.37,2013-06-02 02:33:00,
2013-06-01 22:38:00,77.2,66.7,29.83,SW,220,0.0,0.0,70,0.00,CLR,,0.00,WeatherDisplay:10.37,2013-06-02 02:38:00,
2013-06-01 22:44:00,77.0,66.5,29.83,SW,222,1.1,2.3,70,0.00,CLR,,0.00,WeatherDisplay:10.37,2013-06-02 02:44:00,
2013-06-01 22:49:00,77.0,66.5,29.83,SW,216,1.9,3.5,70,0.00,CLR,,0.00,WeatherDisplay:10.37,2013-06-02 02:49:00,
2013-06-01 22:54:00,77.0,66.5,29.83,SSW,208,0.4,2.3,70,0.00,CLR,,0.00,WeatherDisplay:10.37,2013-06-02 02:54:00,
2013-06-01 22:59:00,77.0,66.5,29.83,SSW,208,0.0,0.0,70,0.00,CLR,,0.00,WeatherDisplay:10.37,2013-06-02 02:59:00,
2013-06-01 23:04:00,76.8,66.3,29.83,SSW,209,0.0,0.0,70,0.00,CLR,,0.00,WeatherDisplay:10.37,2013-06-02 03:04:00,
2013-06-01 23:10:00,76.7,66.6,29.83,SSW,209,0.0,0.0,71,0.00,CLR,,0.00,WeatherDisplay:10.37,2013-06-02 03:10:00,
2013-06-01 23:15:00,76.5,66.4,29.83,SSW,209,0.0,0.0,71,0.00,CLR,,0.00,WeatherDisplay:10.37,2013-06-02 03:15:00,
2013-06-01 23:20:00,76.3,66.2,29.83,SSW,212,0.0,0.0,71,0.00,CLR,,0.00,WeatherDisplay:10.37,2013-06-02 03:20:00,
2013-06-01 23:25:00,76.3,66.2,29.83,SSW,212,0.0,0.0,71,0.00,CLR,,0.00,WeatherDisplay:10.37,2013-06-02 03:25:00,
2013-06-01 23:30:00,76.1,66.0,29.83,SSW,213,0.0,0.0,71,0.00,CLR,,0.00,WeatherDisplay:10.37,2013-06-02 03:30:00,
2013-06-01 23:35:00,76.3,66.2,29.83,SW,215,0.5,3.5,71,0.00,CLR,,0.00,WeatherDisplay:10.37,2013-06-02 03:35:00,
2013-06-01 23:41:00,76.3,66.2,29.83,SW,227,2.5,4.6,71,0.00,CLR,,0.00,WeatherDisplay:10.37,2013-06-02 03:41:00,
2013-06-01 23:46:00,76.5,66.0,29.83,SSW,213,2.9,3.5,70,0.00,CLR,,0.00,WeatherDisplay:10.37,2013-06-02 03:46:00,
2013-06-01 23:51:00,76.5,66.0,29.83,SW,215,0.0,1.2,70,0.00,CLR,,0.00,WeatherDisplay:10.37,2013-06-02 03:51:00,
2013-06-01 23:56:00,76.5,66.0,29.83,South,185,1.5,3.5,70,0.00,CLR,,0.00,WeatherDisplay:10.37,2013-06-02 03:56:00,